sensor_id;sensor_type;location;lat;lon;timestamp;pressure;altitude;pressure_sealevel;temperature;humidity
31761;BME280;18335;51.486;7.562;2023-04-20T00:01:51;100668.50;;;7.73;100.00
31761;BME280;18335;51.486;7.562;2023-04-20T00:04:19;100657.16;;;7.68;100.00
31761;BME280;18335;51.486;7.562;2023-04-20T00:06:46;100644.31;;;7.70;100.00
31761;BME280;18335;51.486;7.562;2023-04-20T00:09:14;100650.44;;;7.63;100.00
31761;BME280;18335;51.486;7.562;2023-04-20T00:11:41;100650.84;;;7.58;100.00
31761;BME280;18335;51.486;7.562;2023-04-20T00:14:07;100643.97;;;7.54;100.00
31761;BME280;18335;51.486;7.562;2023-04-20T00:16:34;100643.09;;;7.54;100.00
31761;BME280;18335;51.486;7.562;2023-04-20T00:19:01;100635.81;;;7.54;100.00
31761;BME280;18335;51.486;7.562;2023-04-20T00:21:29;100637.06;;;7.50;100.00
31761;BME280;18335;51.486;7.562;2023-04-20T00:23:55;100631.56;;;7.31;100.00
31761;BME280;18335;51.486;7.562;2023-04-20T00:26:22;100624.03;;;7.44;100.00
31761;BME280;18335;51.486;7.562;2023-04-20T00:28:51;100622.53;;;7.51;100.00
31761;BME280;18335;51.486;7.562;2023-04-20T00:31:18;100621.81;;;7.49;100.00
31761;BME280;18335;51.486;7.562;2023-04-20T00:33:46;100624.25;;;7.52;100.00
31761;BME280;18335;51.486;7.562;2023-04-20T00:36:13;100616.06;;;7.43;100.00
31761;BME280;18335;51.486;7.562;2023-04-20T00:38:41;100609.53;;;7.24;100.00
31761;BME280;18335;51.486;7.562;2023-04-20T00:41:08;100607.41;;;7.28;100.00
31761;BME280;18335;51.486;7.562;2023-04-20T00:43:36;100601.94;;;7.18;100.00
31761;BME280;18335;51.486;7.562;2023-04-20T00:46:03;100605.47;;;7.09;100.00
31761;BME280;18335;51.486;7.562;2023-04-20T00:48:29;100598.63;;;7.15;100.00
31761;BME280;18335;51.486;7.562;2023-04-20T00:50:56;100591.91;;;6.89;100.00
31761;BME280;18335;51.486;7.562;2023-04-20T00:53:23;100593.16;;;6.85;100.00
31761;BME280;18335;51.486;7.562;2023-04-20T00:55:51;100579.06;;;6.91;100.00
31761;BME280;18335;51.486;7.562;2023-04-20T00:58:18;100588.66;;;6.95;100.00
31761;BME280;18335;51.486;7.562;2023-04-20T01:00:45;100569.03;;;6.82;100.00
31761;BME280;18335;51.486;7.562;2023-04-20T01:03:11;100572.41;;;6.95;100.00
31761;BME280;18335;51.486;7.562;2023-04-20T01:05:39;100578.72;;;7.05;100.00
31761;BME280;18335;51.486;7.562;2023-04-20T01:08:06;100566.47;;;6.80;100.00
31761;BME280;18335;51.486;7.562;2023-04-20T01:10:32;100557.31;;;6.81;100.00
31761;BME280;18335;51.486;7.562;2023-04-20T01:13:00;100558.38;;;6.90;100.00
31761;BME280;18335;51.486;7.562;2023-04-20T01:15:28;100567.75;;;7.06;100.00
31761;BME280;18335;51.486;7.562;2023-04-20T01:17:55;100560.47;;;7.07;100.00
31761;BME280;18335;51.486;7.562;2023-04-20T01:20:22;100553.31;;;7.06;100.00
31761;BME280;18335;51.486;7.562;2023-04-20T01:22:51;100542.41;;;6.96;100.00
31761;BME280;18335;51.486;7.562;2023-04-20T01:25:19;100537.94;;;7.16;100.00
31761;BME280;18335;51.486;7.562;2023-04-20T01:27:46;100529.44;;;7.00;100.00
31761;BME280;18335;51.486;7.562;2023-04-20T01:30:13;100523.38;;;7.17;100.00
31761;BME280;18335;51.486;7.562;2023-04-20T01:32:42;100520.38;;;7.20;100.00
31761;BME280;18335;51.486;7.562;2023-04-20T01:35:08;100515.81;;;7.20;100.00
31761;BME280;18335;51.486;7.562;2023-04-20T01:37:37;100512.50;;;7.17;100.00
31761;BME280;18335;51.486;7.562;2023-04-20T01:40:07;100506.09;;;7.18;100.00
31761;BME280;18335;51.486;7.562;2023-04-20T01:42:35;100508.97;;;7.26;100.00
31761;BME280;18335;51.486;7.562;2023-04-20T01:45:03;100514.88;;;7.01;100.00
31761;BME280;18335;51.486;7.562;2023-04-20T01:47:30;100502.47;;;7.08;100.00
31761;BME280;18335;51.486;7.562;2023-04-20T01:49:57;100502.41;;;7.19;100.00
31761;BME280;18335;51.486;7.562;2023-04-20T01:52:24;100492.56;;;7.28;100.00
31761;BME280;18335;51.486;7.562;2023-04-20T01:54:51;100485.44;;;7.36;100.00
31761;BME280;18335;51.486;7.562;2023-04-20T01:57:19;100486.38;;;7.16;100.00
31761;BME280;18335;51.486;7.562;2023-04-20T01:59:45;100468.69;;;7.21;100.00
31761;BME280;18335;51.486;7.562;2023-04-20T02:02:12;100469.84;;;7.38;100.00
31761;BME280;18335;51.486;7.562;2023-04-20T02:04:39;100471.44;;;7.41;100.00
31761;BME280;18335;51.486;7.562;2023-04-20T02:07:05;100474.16;;;7.31;100.00
31761;BME280;18335;51.486;7.562;2023-04-20T02:09:36;100477.81;;;7.20;100.00
31761;BME280;18335;51.486;7.562;2023-04-20T02:12:04;100471.22;;;7.04;100.00
31761;BME280;18335;51.486;7.562;2023-04-20T02:14:32;100475.56;;;7.26;100.00
31761;BME280;18335;51.486;7.562;2023-04-20T02:16:59;100466.22;;;7.09;100.00
31761;BME280;18335;51.486;7.562;2023-04-20T02:19:26;100465.75;;;6.94;100.00
31761;BME280;18335;51.486;7.562;2023-04-20T02:21:53;100470.50;;;7.11;100.00
31761;BME280;18335;51.486;7.562;2023-04-20T02:24:19;100468.09;;;7.18;100.00
31761;BME280;18335;51.486;7.562;2023-04-20T02:26:47;100460.94;;;7.07;100.00
31761;BME280;18335;51.486;7.562;2023-04-20T02:29:13;100459.81;;;7.10;100.00
31761;BME280;18335;51.486;7.562;2023-04-20T02:31:41;100461.22;;;7.14;100.00
31761;BME280;18335;51.486;7.562;2023-04-20T02:34:08;100452.81;;;7.17;100.00
31761;BME280;18335;51.486;7.562;2023-04-20T02:36:35;100451.47;;;6.92;100.00
31761;BME280;18335;51.486;7.562;2023-04-20T02:39:03;100446.72;;;6.85;100.00
31761;BME280;18335;51.486;7.562;2023-04-20T02:41:32;100439.19;;;6.98;100.00
31761;BME280;18335;51.486;7.562;2023-04-20T02:44:00;100447.75;;;6.93;100.00
31761;BME280;18335;51.486;7.562;2023-04-20T02:46:27;100442.47;;;6.92;100.00
31761;BME280;18335;51.486;7.562;2023-04-20T02:48:55;100440.56;;;6.83;100.00
31761;BME280;18335;51.486;7.562;2023-04-20T02:51:23;100444.91;;;6.95;100.00
31761;BME280;18335;51.486;7.562;2023-04-20T02:53:50;100444.34;;;7.01;100.00
31761;BME280;18335;51.486;7.562;2023-04-20T02:56:25;100443.59;;;6.89;100.00
31761;BME280;18335;51.486;7.562;2023-04-20T02:58:54;100435.88;;;6.85;100.00
31761;BME280;18335;51.486;7.562;2023-04-20T03:01:41;100431.88;;;6.89;100.00
31761;BME280;18335;51.486;7.562;2023-04-20T03:04:19;100436.06;;;7.02;100.00
31761;BME280;18335;51.486;7.562;2023-04-20T03:07:05;100421.63;;;7.02;100.00
31761;BME280;18335;51.486;7.562;2023-04-20T03:09:35;100427.22;;;7.00;100.00
31761;BME280;18335;51.486;7.562;2023-04-20T03:12:15;100432.06;;;6.97;100.00
31761;BME280;18335;51.486;7.562;2023-04-20T03:14:59;100425.47;;;6.90;100.00
31761;BME280;18335;51.486;7.562;2023-04-20T03:17:46;100425.75;;;6.96;100.00
31761;BME280;18335;51.486;7.562;2023-04-20T03:20:15;100428.03;;;6.91;100.00
31761;BME280;18335;51.486;7.562;2023-04-20T03:22:41;100423.44;;;6.82;100.00
31761;BME280;18335;51.486;7.562;2023-04-20T03:25:09;100419.75;;;6.83;100.00
31761;BME280;18335;51.486;7.562;2023-04-20T03:27:52;100427.00;;;6.83;100.00
31761;BME280;18335;51.486;7.562;2023-04-20T03:30:20;100417.63;;;6.87;100.00
31761;BME280;18335;51.486;7.562;2023-04-20T03:32:52;100411.56;;;6.74;100.00
31761;BME280;18335;51.486;7.562;2023-04-20T03:35:20;100412.16;;;6.77;100.00
31761;BME280;18335;51.486;7.562;2023-04-20T03:37:47;100419.97;;;6.71;100.00
31761;BME280;18335;51.486;7.562;2023-04-20T03:40:13;100412.69;;;6.71;100.00
31761;BME280;18335;51.486;7.562;2023-04-20T03:42:40;100407.44;;;6.79;100.00
31761;BME280;18335;51.486;7.562;2023-04-20T03:45:07;100404.69;;;6.69;100.00
31761;BME280;18335;51.486;7.562;2023-04-20T03:47:34;100416.00;;;6.75;100.00
31761;BME280;18335;51.486;7.562;2023-04-20T03:50:01;100408.00;;;6.73;100.00
31761;BME280;18335;51.486;7.562;2023-04-20T03:52:30;100411.41;;;6.65;100.00
31761;BME280;18335;51.486;7.562;2023-04-20T03:54:59;100409.13;;;6.71;100.00
31761;BME280;18335;51.486;7.562;2023-04-20T03:57:27;100406.00;;;6.75;100.00
31761;BME280;18335;51.486;7.562;2023-04-20T03:59:54;100410.88;;;6.81;100.00
31761;BME280;18335;51.486;7.562;2023-04-20T04:02:22;100403.16;;;6.77;100.00
31761;BME280;18335;51.486;7.562;2023-04-20T04:04:50;100403.75;;;6.80;100.00
31761;BME280;18335;51.486;7.562;2023-04-20T04:07:19;100404.84;;;6.68;100.00
31761;BME280;18335;51.486;7.562;2023-04-20T04:09:48;100399.25;;;6.69;100.00
31761;BME280;18335;51.486;7.562;2023-04-20T04:12:15;100409.84;;;6.42;100.00
31761;BME280;18335;51.486;7.562;2023-04-20T04:14:42;100405.56;;;6.40;100.00
31761;BME280;18335;51.486;7.562;2023-04-20T04:17:12;100407.28;;;6.41;100.00
31761;BME280;18335;51.486;7.562;2023-04-20T04:19:40;100408.25;;;6.40;100.00
31761;BME280;18335;51.486;7.562;2023-04-20T04:22:08;100407.41;;;6.39;100.00
31761;BME280;18335;51.486;7.562;2023-04-20T04:24:41;100402.25;;;6.57;100.00
31761;BME280;18335;51.486;7.562;2023-04-20T04:27:10;100402.19;;;6.47;100.00
31761;BME280;18335;51.486;7.562;2023-04-20T04:29:47;100398.16;;;6.42;100.00
31761;BME280;18335;51.486;7.562;2023-04-20T04:32:17;100396.88;;;6.46;100.00
31761;BME280;18335;51.486;7.562;2023-04-20T04:34:44;100397.47;;;6.49;100.00
31761;BME280;18335;51.486;7.562;2023-04-20T04:37:13;100398.19;;;6.51;100.00
31761;BME280;18335;51.486;7.562;2023-04-20T04:39:47;100396.81;;;6.66;100.00
31761;BME280;18335;51.486;7.562;2023-04-20T04:42:21;100395.28;;;6.74;100.00
31761;BME280;18335;51.486;7.562;2023-04-20T04:44:48;100400.44;;;6.77;100.00
31761;BME280;18335;51.486;7.562;2023-04-20T04:47:23;100393.16;;;6.77;100.00
31761;BME280;18335;51.486;7.562;2023-04-20T04:49:50;100401.47;;;6.85;100.00
31761;BME280;18335;51.486;7.562;2023-04-20T04:52:17;100402.59;;;6.83;100.00
31761;BME280;18335;51.486;7.562;2023-04-20T04:54:44;100407.66;;;6.66;100.00
31761;BME280;18335;51.486;7.562;2023-04-20T04:57:11;100404.09;;;6.66;100.00
31761;BME280;18335;51.486;7.562;2023-04-20T04:59:41;100404.34;;;6.53;100.00
31761;BME280;18335;51.486;7.562;2023-04-20T05:02:08;100410.75;;;6.52;100.00
31761;BME280;18335;51.486;7.562;2023-04-20T05:04:35;100409.03;;;6.51;100.00
31761;BME280;18335;51.486;7.562;2023-04-20T05:07:02;100416.81;;;6.35;100.00
31761;BME280;18335;51.486;7.562;2023-04-20T05:09:28;100414.38;;;6.32;100.00
31761;BME280;18335;51.486;7.562;2023-04-20T05:11:57;100420.94;;;6.39;100.00
31761;BME280;18335;51.486;7.562;2023-04-20T05:14:24;100427.06;;;6.32;100.00
31761;BME280;18335;51.486;7.562;2023-04-20T05:16:52;100419.88;;;6.21;100.00
31761;BME280;18335;51.486;7.562;2023-04-20T05:19:19;100420.97;;;6.19;100.00
31761;BME280;18335;51.486;7.562;2023-04-20T05:21:45;100428.28;;;6.18;100.00
31761;BME280;18335;51.486;7.562;2023-04-20T05:24:12;100427.34;;;6.08;100.00
31761;BME280;18335;51.486;7.562;2023-04-20T05:26:39;100430.75;;;6.10;100.00
31761;BME280;18335;51.486;7.562;2023-04-20T05:29:05;100430.25;;;6.16;100.00
31761;BME280;18335;51.486;7.562;2023-04-20T05:31:32;100435.00;;;6.03;100.00
31761;BME280;18335;51.486;7.562;2023-04-20T05:34:00;100429.34;;;6.06;100.00
31761;BME280;18335;51.486;7.562;2023-04-20T05:36:27;100425.28;;;6.00;100.00
31761;BME280;18335;51.486;7.562;2023-04-20T05:38:54;100430.13;;;5.97;100.00
31761;BME280;18335;51.486;7.562;2023-04-20T05:41:21;100428.84;;;6.01;100.00
31761;BME280;18335;51.486;7.562;2023-04-20T05:43:51;100432.84;;;5.97;100.00
31761;BME280;18335;51.486;7.562;2023-04-20T05:46:18;100431.03;;;6.07;100.00
31761;BME280;18335;51.486;7.562;2023-04-20T05:48:45;100433.56;;;5.99;100.00
31761;BME280;18335;51.486;7.562;2023-04-20T05:51:13;100425.94;;;5.93;100.00
31761;BME280;18335;51.486;7.562;2023-04-20T05:53:40;100432.09;;;5.95;100.00
31761;BME280;18335;51.486;7.562;2023-04-20T05:56:07;100431.56;;;6.01;100.00
31761;BME280;18335;51.486;7.562;2023-04-20T05:58:34;100436.91;;;5.91;100.00
31761;BME280;18335;51.486;7.562;2023-04-20T06:01:02;100432.94;;;5.95;100.00
31761;BME280;18335;51.486;7.562;2023-04-20T06:03:28;100434.75;;;6.06;100.00
31761;BME280;18335;51.486;7.562;2023-04-20T06:05:55;100432.63;;;5.78;100.00
31761;BME280;18335;51.486;7.562;2023-04-20T06:08:23;100432.22;;;5.93;100.00
31761;BME280;18335;51.486;7.562;2023-04-20T06:10:52;100435.84;;;6.03;100.00
31761;BME280;18335;51.486;7.562;2023-04-20T06:13:19;100431.38;;;5.93;100.00
31761;BME280;18335;51.486;7.562;2023-04-20T06:15:46;100436.38;;;5.97;100.00
31761;BME280;18335;51.486;7.562;2023-04-20T06:18:13;100435.28;;;6.00;100.00
31761;BME280;18335;51.486;7.562;2023-04-20T06:20:42;100424.19;;;6.03;100.00
31761;BME280;18335;51.486;7.562;2023-04-20T06:23:08;100429.78;;;6.32;100.00
31761;BME280;18335;51.486;7.562;2023-04-20T06:25:37;100427.13;;;6.41;100.00
31761;BME280;18335;51.486;7.562;2023-04-20T06:28:05;100427.47;;;6.27;100.00
31761;BME280;18335;51.486;7.562;2023-04-20T06:30:32;100432.34;;;6.33;100.00
31761;BME280;18335;51.486;7.562;2023-04-20T06:32:59;100425.59;;;6.28;100.00
31761;BME280;18335;51.486;7.562;2023-04-20T06:35:26;100422.94;;;6.37;100.00
31761;BME280;18335;51.486;7.562;2023-04-20T06:37:53;100418.25;;;6.39;100.00
31761;BME280;18335;51.486;7.562;2023-04-20T06:40:21;100415.25;;;6.42;100.00
31761;BME280;18335;51.486;7.562;2023-04-20T06:42:50;100414.44;;;6.51;100.00
31761;BME280;18335;51.486;7.562;2023-04-20T06:45:17;100410.91;;;6.51;100.00
31761;BME280;18335;51.486;7.562;2023-04-20T06:47:44;100417.44;;;6.48;100.00
31761;BME280;18335;51.486;7.562;2023-04-20T06:50:11;100416.72;;;6.46;100.00
31761;BME280;18335;51.486;7.562;2023-04-20T06:52:38;100417.97;;;6.63;100.00
31761;BME280;18335;51.486;7.562;2023-04-20T06:55:06;100416.34;;;6.51;100.00
31761;BME280;18335;51.486;7.562;2023-04-20T06:57:33;100409.66;;;6.64;100.00
31761;BME280;18335;51.486;7.562;2023-04-20T07:00:04;100411.97;;;6.69;100.00
31761;BME280;18335;51.486;7.562;2023-04-20T07:02:41;100411.13;;;6.68;100.00
31761;BME280;18335;51.486;7.562;2023-04-20T07:05:08;100405.81;;;6.67;100.00
31761;BME280;18335;51.486;7.562;2023-04-20T07:07:35;100408.59;;;6.77;100.00
31761;BME280;18335;51.486;7.562;2023-04-20T07:10:02;100397.50;;;6.89;100.00
31761;BME280;18335;51.486;7.562;2023-04-20T07:12:29;100397.69;;;6.67;100.00
31761;BME280;18335;51.486;7.562;2023-04-20T07:14:56;100404.72;;;6.79;100.00
31761;BME280;18335;51.486;7.562;2023-04-20T07:17:27;100403.66;;;7.01;100.00
31761;BME280;18335;51.486;7.562;2023-04-20T07:19:54;100399.69;;;7.14;100.00
31761;BME280;18335;51.486;7.562;2023-04-20T07:22:22;100393.25;;;7.15;100.00
31761;BME280;18335;51.486;7.562;2023-04-20T07:24:49;100397.88;;;7.53;100.00
31761;BME280;18335;51.486;7.562;2023-04-20T07:27:16;100394.44;;;7.22;100.00
31761;BME280;18335;51.486;7.562;2023-04-20T07:29:43;100397.59;;;7.37;100.00
31761;BME280;18335;51.486;7.562;2023-04-20T07:32:09;100396.47;;;7.49;100.00
31761;BME280;18335;51.486;7.562;2023-04-20T07:34:37;100397.69;;;7.26;100.00
31761;BME280;18335;51.486;7.562;2023-04-20T07:37:04;100398.44;;;7.28;100.00
31761;BME280;18335;51.486;7.562;2023-04-20T07:39:31;100392.97;;;7.09;100.00
31761;BME280;18335;51.486;7.562;2023-04-20T07:41:57;100386.81;;;7.07;100.00
31761;BME280;18335;51.486;7.562;2023-04-20T07:44:24;100388.88;;;7.72;100.00
31761;BME280;18335;51.486;7.562;2023-04-20T07:46:51;100397.59;;;7.56;100.00
31761;BME280;18335;51.486;7.562;2023-04-20T07:49:19;100391.31;;;7.46;100.00
31761;BME280;18335;51.486;7.562;2023-04-20T07:51:47;100390.31;;;7.57;100.00
31761;BME280;18335;51.486;7.562;2023-04-20T07:54:13;100395.00;;;7.84;100.00
31761;BME280;18335;51.486;7.562;2023-04-20T07:56:40;100395.56;;;7.77;100.00
31761;BME280;18335;51.486;7.562;2023-04-20T07:59:07;100385.56;;;7.78;100.00
31761;BME280;18335;51.486;7.562;2023-04-20T08:01:34;100390.59;;;7.63;100.00
31761;BME280;18335;51.486;7.562;2023-04-20T08:04:01;100392.88;;;7.39;100.00
31761;BME280;18335;51.486;7.562;2023-04-20T08:06:28;100385.16;;;7.63;100.00
31761;BME280;18335;51.486;7.562;2023-04-20T08:08:56;100389.03;;;7.51;100.00
31761;BME280;18335;51.486;7.562;2023-04-20T08:11:23;100389.84;;;7.80;100.00
31761;BME280;18335;51.486;7.562;2023-04-20T08:13:51;100396.09;;;8.29;100.00
31761;BME280;18335;51.486;7.562;2023-04-20T08:16:17;100399.28;;;8.05;100.00
31761;BME280;18335;51.486;7.562;2023-04-20T08:18:44;100401.88;;;7.49;100.00
31761;BME280;18335;51.486;7.562;2023-04-20T08:21:11;100390.38;;;8.13;100.00
31761;BME280;18335;51.486;7.562;2023-04-20T08:23:38;100391.00;;;7.88;100.00
31761;BME280;18335;51.486;7.562;2023-04-20T08:26:07;100381.16;;;7.67;100.00
31761;BME280;18335;51.486;7.562;2023-04-20T08:28:33;100386.56;;;7.96;100.00
31761;BME280;18335;51.486;7.562;2023-04-20T08:31:00;100378.63;;;8.22;100.00
31761;BME280;18335;51.486;7.562;2023-04-20T08:33:27;100381.53;;;8.30;100.00
31761;BME280;18335;51.486;7.562;2023-04-20T08:35:53;100379.34;;;8.24;100.00
31761;BME280;18335;51.486;7.562;2023-04-20T08:38:20;100369.63;;;8.31;100.00
31761;BME280;18335;51.486;7.562;2023-04-20T08:40:48;100376.94;;;8.21;100.00
31761;BME280;18335;51.486;7.562;2023-04-20T08:43:16;100377.63;;;8.42;100.00
31761;BME280;18335;51.486;7.562;2023-04-20T08:45:46;100374.94;;;8.32;100.00
31761;BME280;18335;51.486;7.562;2023-04-20T08:48:16;100373.38;;;8.57;100.00
31761;BME280;18335;51.486;7.562;2023-04-20T08:50:43;100374.06;;;8.32;100.00
31761;BME280;18335;51.486;7.562;2023-04-20T08:53:09;100368.91;;;8.39;100.00
31761;BME280;18335;51.486;7.562;2023-04-20T08:55:36;100379.50;;;8.13;100.00
31761;BME280;18335;51.486;7.562;2023-04-20T08:58:03;100371.25;;;8.05;100.00
31761;BME280;18335;51.486;7.562;2023-04-20T09:00:31;100385.00;;;7.94;100.00
31761;BME280;18335;51.486;7.562;2023-04-20T09:02:58;100376.97;;;8.02;100.00
31761;BME280;18335;51.486;7.562;2023-04-20T09:05:27;100374.63;;;8.16;100.00
31761;BME280;18335;51.486;7.562;2023-04-20T09:07:55;100380.34;;;8.42;100.00
31761;BME280;18335;51.486;7.562;2023-04-20T09:10:24;100384.94;;;8.13;100.00
31761;BME280;18335;51.486;7.562;2023-04-20T09:12:51;100384.13;;;8.03;100.00
31761;BME280;18335;51.486;7.562;2023-04-20T09:15:26;100384.78;;;8.24;100.00
31761;BME280;18335;51.486;7.562;2023-04-20T09:18:10;100388.22;;;8.26;100.00
31761;BME280;18335;51.486;7.562;2023-04-20T09:20:38;100393.50;;;8.37;100.00
31761;BME280;18335;51.486;7.562;2023-04-20T09:23:11;100395.09;;;8.20;100.00
31761;BME280;18335;51.486;7.562;2023-04-20T09:25:39;100392.22;;;8.22;100.00
31761;BME280;18335;51.486;7.562;2023-04-20T09:28:08;100391.41;;;8.02;100.00
31761;BME280;18335;51.486;7.562;2023-04-20T09:30:36;100396.69;;;8.04;100.00
31761;BME280;18335;51.486;7.562;2023-04-20T09:33:05;100385.84;;;7.94;100.00
31761;BME280;18335;51.486;7.562;2023-04-20T09:35:35;100386.16;;;7.82;100.00
31761;BME280;18335;51.486;7.562;2023-04-20T09:38:02;100388.69;;;8.02;100.00
31761;BME280;18335;51.486;7.562;2023-04-20T09:40:31;100384.72;;;7.97;100.00
31761;BME280;18335;51.486;7.562;2023-04-20T09:43:02;100383.50;;;8.28;100.00
31761;BME280;18335;51.486;7.562;2023-04-20T09:45:32;100379.25;;;8.62;100.00
31761;BME280;18335;51.486;7.562;2023-04-20T09:48:00;100377.44;;;9.08;100.00
31761;BME280;18335;51.486;7.562;2023-04-20T09:50:31;100376.75;;;9.23;100.00
31761;BME280;18335;51.486;7.562;2023-04-20T09:53:01;100377.53;;;9.69;100.00
31761;BME280;18335;51.486;7.562;2023-04-20T09:55:29;100373.63;;;9.89;100.00
31761;BME280;18335;51.486;7.562;2023-04-20T09:57:56;100383.78;;;9.43;100.00
31761;BME280;18335;51.486;7.562;2023-04-20T10:00:23;100372.97;;;8.89;100.00
31761;BME280;18335;51.486;7.562;2023-04-20T10:02:50;100376.22;;;8.65;100.00
31761;BME280;18335;51.486;7.562;2023-04-20T10:05:17;100370.81;;;9.10;100.00
31761;BME280;18335;51.486;7.562;2023-04-20T10:07:45;100373.56;;;9.28;100.00
31761;BME280;18335;51.486;7.562;2023-04-20T10:10:13;100368.69;;;9.31;100.00
31761;BME280;18335;51.486;7.562;2023-04-20T10:12:48;100371.19;;;8.98;100.00
31761;BME280;18335;51.486;7.562;2023-04-20T10:15:15;100362.63;;;9.37;100.00
31761;BME280;18335;51.486;7.562;2023-04-20T10:17:42;100360.09;;;9.44;100.00
31761;BME280;18335;51.486;7.562;2023-04-20T10:20:27;100372.31;;;9.22;100.00
31761;BME280;18335;51.486;7.562;2023-04-20T10:23:07;100368.84;;;9.03;100.00
31761;BME280;18335;51.486;7.562;2023-04-20T10:25:36;100369.34;;;9.16;100.00
31761;BME280;18335;51.486;7.562;2023-04-20T10:28:04;100370.28;;;9.07;100.00
31761;BME280;18335;51.486;7.562;2023-04-20T10:30:34;100370.13;;;9.26;100.00
31761;BME280;18335;51.486;7.562;2023-04-20T10:33:05;100357.84;;;9.22;100.00
31761;BME280;18335;51.486;7.562;2023-04-20T10:35:45;100359.31;;;9.16;100.00
31761;BME280;18335;51.486;7.562;2023-04-20T10:38:13;100359.97;;;9.45;100.00
31761;BME280;18335;51.486;7.562;2023-04-20T10:40:40;100361.50;;;9.66;100.00
31761;BME280;18335;51.486;7.562;2023-04-20T10:43:17;100360.28;;;10.03;100.00
31761;BME280;18335;51.486;7.562;2023-04-20T10:45:44;100352.44;;;9.83;100.00
31761;BME280;18335;51.486;7.562;2023-04-20T10:48:11;100358.00;;;9.73;100.00
31761;BME280;18335;51.486;7.562;2023-04-20T10:50:38;100352.31;;;9.67;100.00
31761;BME280;18335;51.486;7.562;2023-04-20T10:53:05;100357.94;;;10.09;100.00
31761;BME280;18335;51.486;7.562;2023-04-20T10:55:43;100350.31;;;10.38;100.00
31761;BME280;18335;51.486;7.562;2023-04-20T10:58:20;100349.63;;;10.36;100.00
31761;BME280;18335;51.486;7.562;2023-04-20T11:00:55;100353.97;;;10.54;100.00
31761;BME280;18335;51.486;7.562;2023-04-20T11:03:22;100355.81;;;9.94;100.00
31761;BME280;18335;51.486;7.562;2023-04-20T11:05:49;100352.13;;;9.86;100.00
31761;BME280;18335;51.486;7.562;2023-04-20T11:08:16;100352.97;;;9.61;100.00
31761;BME280;18335;51.486;7.562;2023-04-20T11:10:44;100354.72;;;9.87;100.00
31761;BME280;18335;51.486;7.562;2023-04-20T11:13:18;100355.91;;;10.11;100.00
31761;BME280;18335;51.486;7.562;2023-04-20T11:15:46;100342.81;;;10.40;100.00
31761;BME280;18335;51.486;7.562;2023-04-20T11:18:13;100345.50;;;10.32;100.00
31761;BME280;18335;51.486;7.562;2023-04-20T11:20:49;100342.75;;;10.24;100.00
31761;BME280;18335;51.486;7.562;2023-04-20T11:23:17;100341.53;;;10.52;100.00
31761;BME280;18335;51.486;7.562;2023-04-20T11:25:50;100334.63;;;10.40;100.00
31761;BME280;18335;51.486;7.562;2023-04-20T11:28:18;100336.47;;;10.31;100.00
31761;BME280;18335;51.486;7.562;2023-04-20T11:30:45;100334.88;;;10.21;100.00
31761;BME280;18335;51.486;7.562;2023-04-20T11:33:12;100340.16;;;10.22;100.00
31761;BME280;18335;51.486;7.562;2023-04-20T11:35:40;100339.91;;;10.33;100.00
31761;BME280;18335;51.486;7.562;2023-04-20T11:38:08;100337.56;;;9.95;100.00
31761;BME280;18335;51.486;7.562;2023-04-20T11:40:35;100341.97;;;10.14;100.00
31761;BME280;18335;51.486;7.562;2023-04-20T11:43:03;100329.03;;;10.16;100.00
31761;BME280;18335;51.486;7.562;2023-04-20T11:45:31;100325.34;;;10.25;100.00
31761;BME280;18335;51.486;7.562;2023-04-20T11:47:59;100325.16;;;10.18;100.00
31761;BME280;18335;51.486;7.562;2023-04-20T11:50:26;100327.13;;;10.76;100.00
31761;BME280;18335;51.486;7.562;2023-04-20T11:52:52;100329.53;;;10.79;100.00
31761;BME280;18335;51.486;7.562;2023-04-20T11:55:19;100308.03;;;10.76;100.00
31761;BME280;18335;51.486;7.562;2023-04-20T11:57:46;100320.91;;;10.99;100.00
31761;BME280;18335;51.486;7.562;2023-04-20T12:00:15;100312.69;;;10.91;100.00
31761;BME280;18335;51.486;7.562;2023-04-20T12:02:42;100329.97;;;11.08;100.00
31761;BME280;18335;51.486;7.562;2023-04-20T12:05:09;100319.97;;;11.57;100.00
31761;BME280;18335;51.486;7.562;2023-04-20T12:07:36;100322.72;;;11.41;100.00
31761;BME280;18335;51.486;7.562;2023-04-20T12:10:04;100321.66;;;11.26;100.00
31761;BME280;18335;51.486;7.562;2023-04-20T12:12:30;100321.88;;;10.90;100.00
31761;BME280;18335;51.486;7.562;2023-04-20T12:14:58;100334.34;;;10.85;100.00
31761;BME280;18335;51.486;7.562;2023-04-20T12:17:26;100341.59;;;10.60;100.00
31761;BME280;18335;51.486;7.562;2023-04-20T12:19:53;100348.72;;;10.61;100.00
31761;BME280;18335;51.486;7.562;2023-04-20T12:22:20;100327.06;;;11.09;100.00
31761;BME280;18335;51.486;7.562;2023-04-20T12:24:46;100326.59;;;11.22;100.00
31761;BME280;18335;51.486;7.562;2023-04-20T12:27:13;100333.66;;;11.41;100.00
31761;BME280;18335;51.486;7.562;2023-04-20T12:29:40;100337.44;;;10.90;100.00
31761;BME280;18335;51.486;7.562;2023-04-20T12:32:07;100346.44;;;10.82;100.00
31761;BME280;18335;51.486;7.562;2023-04-20T12:34:35;100337.09;;;10.51;100.00
31761;BME280;18335;51.486;7.562;2023-04-20T12:37:01;100345.53;;;10.40;100.00
31761;BME280;18335;51.486;7.562;2023-04-20T12:39:28;100337.56;;;10.80;100.00
31761;BME280;18335;51.486;7.562;2023-04-20T12:41:55;100336.25;;;10.92;100.00
31761;BME280;18335;51.486;7.562;2023-04-20T12:44:22;100334.59;;;11.16;100.00
31761;BME280;18335;51.486;7.562;2023-04-20T12:46:49;100325.06;;;11.28;100.00
31761;BME280;18335;51.486;7.562;2023-04-20T12:49:16;100339.13;;;10.91;100.00
31761;BME280;18335;51.486;7.562;2023-04-20T12:51:44;100340.25;;;10.72;100.00
31761;BME280;18335;51.486;7.562;2023-04-20T12:54:10;100334.66;;;10.82;100.00